N66M KSAN-KSNA
Flight info
| Callsign | N66M |
|---|---|
| Flight time | 0h 25m |
| Altitude | 10000 |
| Route | SANP4R |
| Aircraft | E55P/L-VGDW/C |
Departure
| Time | 2026-04-20 02:20 |
|---|---|
| Airport | San Diego International Airport (KSAN) |
Arrival
| Time | 2026-04-20 02:45 |
|---|---|
| Airport | John Wayne Orange County International Airport (KSNA) |
| Time | Latitude | Longitude | Altitude | Speed | Heading |
|---|---|---|---|---|---|
| 2026-04-20 01:44 | 32.73427 | -117.17963 | 22 ft | 0 kts | 288° |
| 2026-04-20 02:00 | 32.73427 | -117.17969 | 22 ft | 1 kts | 241° |
| 2026-04-20 02:00 | 32.73414 | -117.17972 | 22 ft | 2 kts | 169° |
| 2026-04-20 02:01 | 32.73411 | -117.17971 | 22 ft | 0 kts | 165° |
| 2026-04-20 02:01 | 32.73411 | -117.17970 | 22 ft | 0 kts | 165° |
| 2026-04-20 02:11 | 32.73410 | -117.17970 | 22 ft | 0 kts | 165° |
| 2026-04-20 02:11 | 32.73406 | -117.17969 | 22 ft | 0 kts | 165° |
| 2026-04-20 02:12 | 32.73404 | -117.17969 | 22 ft | 0 kts | 165° |
| 2026-04-20 02:14 | 32.73392 | -117.17965 | 22 ft | 4 kts | 166° |
| 2026-04-20 02:14 | 32.73340 | -117.17960 | 22 ft | 9 kts | 188° |
| 2026-04-20 02:14 | 32.73272 | -117.17981 | 22 ft | 10 kts | 197° |
| 2026-04-20 02:15 | 32.73222 | -117.17937 | 22 ft | 11 kts | 110° |
| 2026-04-20 02:15 | 32.73198 | -117.17840 | 22 ft | 13 kts | 102° |
| 2026-04-20 02:15 | 32.73172 | -117.17727 | 22 ft | 14 kts | 107° |
| 2026-04-20 02:15 | 32.73143 | -117.17619 | 22 ft | 13 kts | 108° |
| 2026-04-20 02:16 | 32.73107 | -117.17564 | 22 ft | 6 kts | 150° |
| 2026-04-20 02:16 | 32.73098 | -117.17557 | 22 ft | 0 kts | 144° |
| 2026-04-20 02:19 | 32.73094 | -117.17554 | 22 ft | 3 kts | 144° |
| 2026-04-20 02:19 | 32.73056 | -117.17536 | 22 ft | 7 kts | 196° |
| 2026-04-20 02:19 | 32.73036 | -117.17632 | 22 ft | 32 kts | 283° |
| 2026-04-20 02:19 | 32.73179 | -117.18241 | 22 ft | 118 kts | 286° |
| 2026-04-20 02:20 | 32.73457 | -117.19388 | 293 ft | 162 kts | 287° |
| 2026-04-20 02:20 | 32.73855 | -117.20629 | 1034 ft | 179 kts | 303° |
| 2026-04-20 02:20 | 32.74657 | -117.21977 | 1624 ft | 216 kts | 303° |
| 2026-04-20 02:20 | 32.75521 | -117.23572 | 2335 ft | 247 kts | 302° |
| 2026-04-20 02:21 | 32.77472 | -117.27219 | 4086 ft | 274 kts | 302° |
| 2026-04-20 02:21 | 32.78491 | -117.29129 | 4940 ft | 281 kts | 302° |
| 2026-04-20 02:21 | 32.79533 | -117.31084 | 5783 ft | 281 kts | 302° |
| 2026-04-20 02:22 | 32.80669 | -117.32941 | 6634 ft | 280 kts | 308° |
| 2026-04-20 02:22 | 32.81850 | -117.34766 | 7484 ft | 280 kts | 306° |
| 2026-04-20 02:22 | 32.83024 | -117.36578 | 8325 ft | 280 kts | 306° |
| 2026-04-20 02:22 | 32.84203 | -117.38408 | 9168 ft | 279 kts | 306° |
| 2026-04-20 02:23 | 32.85372 | -117.40224 | 9848 ft | 284 kts | 306° |
| 2026-04-20 02:23 | 32.86594 | -117.42122 | 9966 ft | 291 kts | 306° |
| 2026-04-20 02:23 | 32.87831 | -117.44044 | 9988 ft | 293 kts | 306° |
| 2026-04-20 02:23 | 32.89068 | -117.45966 | 9990 ft | 295 kts | 306° |
| 2026-04-20 02:24 | 32.90317 | -117.47908 | 9989 ft | 297 kts | 306° |
| 2026-04-20 02:24 | 32.91579 | -117.49870 | 9986 ft | 299 kts | 306° |
| 2026-04-20 02:24 | 32.92835 | -117.51825 | 9984 ft | 300 kts | 306° |
| 2026-04-20 02:24 | 32.94111 | -117.53813 | 9981 ft | 301 kts | 306° |
| 2026-04-20 02:25 | 32.95388 | -117.55802 | 9975 ft | 302 kts | 306° |
| 2026-04-20 02:25 | 32.96667 | -117.57795 | 9974 ft | 303 kts | 306° |
| 2026-04-20 02:25 | 32.97930 | -117.59764 | 9972 ft | 303 kts | 306° |
| 2026-04-20 02:25 | 32.99215 | -117.61770 | 9971 ft | 303 kts | 306° |
| 2026-04-20 02:26 | 33.00494 | -117.63766 | 9969 ft | 303 kts | 306° |
| 2026-04-20 02:26 | 33.01770 | -117.65758 | 9969 ft | 303 kts | 306° |
| 2026-04-20 02:26 | 33.03062 | -117.67774 | 9969 ft | 303 kts | 306° |
| 2026-04-20 02:26 | 33.04333 | -117.69760 | 9970 ft | 304 kts | 306° |
| 2026-04-20 02:27 | 33.05612 | -117.71761 | 9973 ft | 304 kts | 306° |
| 2026-04-20 02:27 | 33.07029 | -117.73653 | 9971 ft | 305 kts | 319° |
| 2026-04-20 02:27 | 33.08651 | -117.75264 | 9975 ft | 305 kts | 318° |
| 2026-04-20 02:27 | 33.10259 | -117.76894 | 9973 ft | 305 kts | 318° |
| 2026-04-20 02:28 | 33.11890 | -117.78549 | 9970 ft | 305 kts | 318° |
| 2026-04-20 02:28 | 33.13513 | -117.80198 | 9986 ft | 305 kts | 318° |
| 2026-04-20 02:28 | 33.15123 | -117.81837 | 10003 ft | 305 kts | 318° |
| 2026-04-20 02:28 | 33.16741 | -117.83485 | 10007 ft | 306 kts | 318° |
| 2026-04-20 02:29 | 33.18348 | -117.85122 | 10007 ft | 307 kts | 318° |
| 2026-04-20 02:29 | 33.20174 | -117.86431 | 10001 ft | 309 kts | 343° |
| 2026-04-20 02:29 | 33.22302 | -117.86917 | 10011 ft | 310 kts | 348° |
| 2026-04-20 02:29 | 33.24426 | -117.87448 | 10006 ft | 311 kts | 348° |
| 2026-04-20 02:30 | 33.26540 | -117.87968 | 9999 ft | 311 kts | 348° |
| 2026-04-20 02:30 | 33.28674 | -117.88497 | 9995 ft | 311 kts | 348° |
| 2026-04-20 02:30 | 33.30781 | -117.89022 | 9992 ft | 312 kts | 348° |
| 2026-04-20 02:30 | 33.32909 | -117.89552 | 9990 ft | 312 kts | 348° |
| 2026-04-20 02:31 | 33.35033 | -117.90085 | 9992 ft | 312 kts | 347° |
| 2026-04-20 02:31 | 33.37185 | -117.90621 | 9992 ft | 313 kts | 348° |
| 2026-04-20 02:31 | 33.39306 | -117.91231 | 9990 ft | 313 kts | 342° |
| 2026-04-20 02:31 | 33.41380 | -117.92004 | 9990 ft | 310 kts | 343° |
| 2026-04-20 02:32 | 33.43435 | -117.92752 | 9999 ft | 307 kts | 342° |
| 2026-04-20 02:32 | 33.45472 | -117.93487 | 9997 ft | 304 kts | 342° |
| 2026-04-20 02:32 | 33.47487 | -117.94222 | 9998 ft | 302 kts | 342° |
| 2026-04-20 02:32 | 33.49504 | -117.94963 | 10000 ft | 300 kts | 342° |
| 2026-04-20 02:33 | 33.51378 | -117.96026 | 10001 ft | 294 kts | 330° |
| 2026-04-20 02:33 | 33.53138 | -117.97146 | 9987 ft | 281 kts | 331° |
| 2026-04-20 02:33 | 33.54834 | -117.98215 | 9689 ft | 277 kts | 330° |
| 2026-04-20 02:33 | 33.56556 | -117.99308 | 8964 ft | 282 kts | 331° |
| 2026-04-20 02:34 | 33.58292 | -118.00406 | 8247 ft | 285 kts | 331° |
| 2026-04-20 02:34 | 33.60026 | -118.01498 | 7714 ft | 279 kts | 331° |
| 2026-04-20 02:34 | 33.61733 | -118.02570 | 7172 ft | 275 kts | 331° |
| 2026-04-20 02:34 | 33.63422 | -118.03627 | 6627 ft | 271 kts | 331° |
| 2026-04-20 02:35 | 33.65087 | -118.04664 | 6081 ft | 267 kts | 331° |
| 2026-04-20 02:35 | 33.66721 | -118.05678 | 5541 ft | 264 kts | 331° |
| 2026-04-20 02:35 | 33.68338 | -118.06679 | 5071 ft | 259 kts | 331° |
| 2026-04-20 02:35 | 33.69884 | -118.07645 | 4976 ft | 238 kts | 327° |
| 2026-04-20 02:36 | 33.70864 | -118.09071 | 4966 ft | 213 kts | 284° |
| 2026-04-20 02:36 | 33.70734 | -118.10768 | 4986 ft | 207 kts | 240° |
| 2026-04-20 02:36 | 33.69660 | -118.11832 | 4991 ft | 207 kts | 197° |
| 2026-04-20 02:36 | 33.68247 | -118.11674 | 4992 ft | 212 kts | 153° |
| 2026-04-20 02:37 | 33.67293 | -118.10337 | 4997 ft | 219 kts | 110° |
| 2026-04-20 02:37 | 33.67288 | -118.08495 | 5007 ft | 223 kts | 81° |
| 2026-04-20 02:37 | 33.67569 | -118.06653 | 4991 ft | 223 kts | 81° |
| 2026-04-20 02:37 | 33.67842 | -118.04862 | 4977 ft | 214 kts | 81° |
| 2026-04-20 02:38 | 33.68108 | -118.03133 | 4971 ft | 205 kts | 81° |
| 2026-04-20 02:38 | 33.68363 | -118.01489 | 4970 ft | 198 kts | 81° |
| 2026-04-20 02:38 | 33.68614 | -117.99876 | 4973 ft | 194 kts | 81° |
| 2026-04-20 02:38 | 33.68863 | -117.98281 | 4977 ft | 194 kts | 81° |
| 2026-04-20 02:39 | 33.69111 | -117.96693 | 4978 ft | 194 kts | 81° |
| 2026-04-20 02:39 | 33.69531 | -117.95184 | 4974 ft | 195 kts | 53° |
| 2026-04-20 02:39 | 33.70571 | -117.94129 | 4989 ft | 194 kts | 32° |
| 2026-04-20 02:39 | 33.71736 | -117.93326 | 4967 ft | 195 kts | 28° |
| 2026-04-20 02:40 | 33.72943 | -117.92540 | 4734 ft | 196 kts | 28° |
| 2026-04-20 02:40 | 33.74139 | -117.91785 | 4468 ft | 197 kts | 27° |
| 2026-04-20 02:40 | 33.75361 | -117.91020 | 4213 ft | 195 kts | 27° |
| 2026-04-20 02:40 | 33.76596 | -117.90247 | 3895 ft | 201 kts | 27° |
| 2026-04-20 02:41 | 33.77833 | -117.89452 | 3561 ft | 202 kts | 32° |
| 2026-04-20 02:41 | 33.78777 | -117.88216 | 3138 ft | 202 kts | 62° |
| 2026-04-20 02:41 | 33.79194 | -117.86634 | 2723 ft | 200 kts | 85° |
| 2026-04-20 02:41 | 33.79056 | -117.85000 | 2306 ft | 197 kts | 109° |
| 2026-04-20 02:42 | 33.78410 | -117.83584 | 1883 ft | 188 kts | 131° |
| 2026-04-20 02:42 | 33.77455 | -117.82650 | 1478 ft | 171 kts | 154° |
| 2026-04-20 02:42 | 33.76414 | -117.82220 | 1390 ft | 148 kts | 172° |
| 2026-04-20 02:42 | 33.75428 | -117.82192 | 1316 ft | 140 kts | 188° |
| 2026-04-20 02:43 | 33.74455 | -117.82533 | 1171 ft | 154 kts | 204° |
| 2026-04-20 02:43 | 33.73441 | -117.83139 | 1243 ft | 155 kts | 209° |
| 2026-04-20 02:43 | 33.72592 | -117.83706 | 1216 ft | 133 kts | 209° |
| 2026-04-20 02:43 | 33.71808 | -117.84215 | 1048 ft | 122 kts | 208° |
| 2026-04-20 02:44 | 33.71063 | -117.84673 | 820 ft | 118 kts | 208° |
| 2026-04-20 02:44 | 33.70341 | -117.85122 | 634 ft | 115 kts | 208° |
| 2026-04-20 02:44 | 33.69646 | -117.85572 | 468 ft | 112 kts | 208° |
| 2026-04-20 02:44 | 33.68962 | -117.86007 | 300 ft | 108 kts | 208° |
| 2026-04-20 02:45 | 33.68317 | -117.86410 | 135 ft | 101 kts | 208° |
| 2026-04-20 02:45 | 33.67723 | -117.86790 | 57 ft | 87 kts | 208° |
| 2026-04-20 02:45 | 33.67252 | -117.87089 | 62 ft | 55 kts | 209° |
| 2026-04-20 02:45 | 33.67044 | -117.87221 | 62 ft | 20 kts | 211° |
| 2026-04-20 02:46 | 33.67003 | -117.87311 | 62 ft | 7 kts | 281° |
| 2026-04-20 02:46 | 33.67016 | -117.87343 | 62 ft | 4 kts | 305° |
| 2026-04-20 02:46 | 33.67017 | -117.87344 | 62 ft | 0 kts | 310° |
| 2026-04-20 02:48 | 33.67017 | -117.87345 | 62 ft | 0 kts | 310° |
| 2026-04-20 02:48 | 33.67031 | -117.87353 | 62 ft | 6 kts | 343° |
| 2026-04-20 02:48 | 33.67101 | -117.87331 | 62 ft | 15 kts | 27° |
| 2026-04-20 02:48 | 33.67213 | -117.87259 | 62 ft | 19 kts | 27° |
| 2026-04-20 02:49 | 33.67328 | -117.87188 | 62 ft | 16 kts | 27° |
| 2026-04-20 02:49 | 33.67387 | -117.87190 | 61 ft | 5 kts | 317° |
| 2026-04-20 02:49 | 33.67400 | -117.87214 | 61 ft | 0 kts | 298° |